Latest Weather Observations for Cape Borda

IDS60801

Issued at 5:35 am CST Thursday 24 July 2014 (issued every 30 minutes, with the page automatically refreshed every 10 minutes)

About weather observations | Map of weather stations | Latest weather observations for SA | Other Formats
Station Details ID: 022823 Name: CAPE BORDA Lat: -35.75 Lon: 136.60 Height: 158.0 m
Data from the previous 72 hours. | See also: Recent months at Cape Borda
Date/Time
CST
Temp
°C
App
Temp
°C
Dew
Point
Rel
Hum
%
Delta-T
°C
Wind Press
QNH
hPa
Press
MSL
hPa
Rain
since 9 am
mm
Dir
 
Spd
km/h
Gust
km/h
Spd
kts
Gust
kts
24/05:30am 8.2 5.6 7.8 97 0.2 S 11 13 6 7 1003.2 - 10.6
24/05:00am 9.0 7.0 8.6 97 0.2 ESE 9 11 5 6 1003.2 - 10.6
24/04:30am 9.1 7.2 8.9 99 0.1 ESE 9 9 5 5 1003.0 - 10.6
24/04:00am 10.0 7.4 9.4 96 0.3 E 13 15 7 8 1002.9 - 10.6
24/03:30am 10.2 8.4 9.6 96 0.3 ESE 9 13 5 7 1003.0 - 9.8
24/03:00am 10.8 8.3 9.8 93 0.5 ENE 13 17 7 9 1003.2 1003.3 9.6
24/02:30am 10.8 7.5 9.6 92 0.6 NE 17 26 9 14 1003.3 - 9.6
24/02:00am 10.9 6.6 9.3 90 0.8 ENE 22 33 12 18 1003.6 - 9.6
24/01:30am 10.8 5.3 9.0 89 0.9 ENE 28 37 15 20 1003.9 - 9.6
24/01:00am 10.8 4.6 9.4 91 0.7 ENE 32 41 17 22 1004.1 - 9.6
24/12:39am 10.8 4.6 9.2 90 0.8 ENE 32 50 17 27 1004.3 - 9.6
24/12:30am 10.9 3.7 9.1 89 0.9 NE 37 50 20 27 1004.3 - 9.6
24/12:11am 10.8 4.4 9.4 91 0.7 ENE 33 52 18 28 1004.5 - 9.6
24/12:00am 10.7 4.3 9.5 92 0.6 NE 33 44 18 24 1004.8 1004.9 9.6
 
Date/Time
CST
Temp
°C
App
Temp
°C
Dew
Point
Rel
Hum
%
Delta-T
°C
Wind Press
QNH
hPa
Press
MSL
hPa
Rain
since 9 am
mm
Dir
 
Spd
km/h
Gust
km/h
Spd
kts
Gust
kts
23/11:30pm 10.6 4.2 9.2 91 0.7 NE 33 48 18 26 1005.4 - 9.6
23/11:00pm 10.6 4.2 9.2 91 0.7 NE 33 48 18 26 1005.8 - 9.4
23/10:30pm 10.8 4.5 9.8 93 0.5 ENE 33 50 18 27 1006.1 - 8.8
23/10:00pm 10.8 4.1 9.8 93 0.5 NE 35 50 19 27 1006.6 - 8.6
23/09:40pm 10.8 4.1 9.8 93 0.5 NE 35 54 19 29 1006.8 - 7.8
23/09:30pm 11.1 5.0 9.9 92 0.6 NE 32 48 17 26 1006.9 - 7.6
23/09:01pm 11.5 4.8 9.5 87 1.0 NE 35 54 19 29 1006.7 - 7.4
23/09:00pm 11.4 4.3 9.4 87 1.0 NE 37 54 20 29 1006.7 1006.9 7.4
23/08:45pm 11.5 4.8 9.5 87 1.0 NE 35 59 19 32 1006.9 - 7.4
23/08:30pm 11.6 5.3 9.8 89 0.9 NE 33 44 18 24 1007.1 - 7.4
23/08:00pm 11.3 4.6 9.5 89 0.9 NE 35 61 19 33 1007.1 - 7.4
23/07:47pm 11.3 5.0 9.7 90 0.8 NE 33 52 18 28 1007.2 - 7.4
23/07:30pm 11.2 5.1 9.6 90 0.8 NE 32 43 17 23 1007.3 - 7.2
23/07:00pm 11.6 5.4 10.2 91 0.7 NE 33 48 18 26 1007.3 - 6.8
23/06:34pm 12.0 6.2 9.5 85 1.3 NE 30 48 16 26 1007.5 - 6.2
23/06:30pm 12.0 5.8 9.2 83 1.4 NE 32 46 17 25 1007.3 - 6.2
23/06:00pm 11.8 4.9 9.0 83 1.4 NE 35 56 19 30 1007.3 1007.5 6.2
23/05:44pm 11.5 4.7 9.1 85 1.2 ENE 35 56 19 30 1007.3 - 6.0
23/05:30pm 11.6 4.1 9.4 86 1.1 ENE 39 54 21 29 1007.5 - 6.0
23/05:00pm 11.5 4.2 10.1 91 0.7 ENE 39 59 21 32 1007.7 - 6.0
23/04:30pm 11.8 4.6 10.7 93 0.6 ENE 39 59 21 32 1008.2 - 5.4
23/04:00pm 11.7 4.1 10.5 92 0.6 ENE 41 61 22 33 1007.9 - 5.4
23/03:30pm 11.6 4.4 10.6 94 0.5 ENE 39 59 21 32 1007.9 - 5.4
23/03:05pm 11.4 5.0 10.6 95 0.4 ENE 35 54 19 29 1007.8 - 4.8
23/03:00pm 11.4 4.6 10.6 95 0.4 ENE 37 50 20 27 1007.8 1007.9 4.8
23/02:30pm 11.5 4.7 10.7 95 0.4 ENE 37 57 20 31 1008.6 - 4.6
23/02:26pm 11.4 4.6 10.6 95 0.4 ENE 37 57 20 31 1008.6 - 4.6
23/02:00pm 11.4 5.3 10.6 95 0.4 ENE 33 46 18 25 1009.0 - 4.6
23/01:39pm 11.2 5.0 10.2 94 0.5 ENE 33 54 18 29 1009.6 - 4.4
23/01:30pm 11.2 5.3 10.4 95 0.4 ENE 32 44 17 24 1009.5 - 4.4
23/01:00pm 11.1 5.2 10.3 95 0.4 ENE 32 44 17 24 1011.2 - 3.8
23/12:30pm 11.3 5.4 10.3 94 0.5 NE 32 44 17 24 1012.4 - 2.6
23/12:00pm 11.7 6.2 10.7 94 0.5 NNE 30 41 16 22 1013.4 1013.6 1.0
23/11:30am 12.1 6.5 10.0 87 1.1 NNE 30 43 16 23 1014.0 - 0.2
23/11:14am 12.8 7.2 8.8 76 2.0 NNE 28 46 15 25 1014.3 - 0.0
23/11:00am 13.4 7.3 8.2 71 2.6 N 30 43 16 23 1014.4 - 0.0
23/10:30am 13.4 8.5 7.1 65 3.1 NNE 22 35 12 19 1015.0 - 0.0
23/10:00am 13.3 8.5 9.0 75 2.2 NE 24 33 13 18 1015.3 - 0.0
23/09:30am 12.4 8.5 9.5 82 1.5 ENE 20 30 11 16 1015.2 - 0.0
23/09:00am 12.5 7.8 7.8 73 2.3 ENE 22 32 12 17 1015.1 1015.2 0.0
23/08:30am 12.7 7.8 6.9 68 2.8 ENE 22 33 12 18 1015.0 - 0.0
23/08:00am 12.6 7.3 6.6 67 2.9 ENE 24 33 13 18 1015.3 - 0.0
23/07:30am 12.2 7.8 7.5 73 2.3 E 20 30 11 16 1015.2 - 0.0
23/07:00am 11.8 7.6 8.2 78 1.8 ENE 20 35 11 19 1015.4 - 0.0
23/06:30am 12.3 7.9 7.6 73 2.3 E 20 32 11 17 1015.7 - 0.0
23/06:00am 12.6 8.3 8.0 73 2.3 E 20 28 11 15 1016.0 1016.1 0.0
23/05:30am 12.7 7.6 7.8 72 2.4 NE 24 33 13 18 1016.3 - 0.0
23/05:00am 12.6 8.0 8.0 73 2.3 ENE 22 30 12 16 1015.9 - 0.0
23/04:30am 12.6 7.5 7.7 72 2.4 ENE 24 33 13 18 1016.0 - 0.0
23/04:00am 12.7 7.6 7.8 72 2.4 ENE 24 33 13 18 1016.4 - 0.0
23/03:30am 12.6 7.0 7.0 68 2.7 ENE 26 35 14 19 1016.5 - 0.0
23/03:00am 12.6 6.9 6.8 68 2.8 ENE 26 39 14 21 1016.8 1017.0 0.0
23/02:30am 12.7 7.5 7.2 69 2.7 ENE 24 33 13 18 1017.2 - 0.0
23/02:00am 12.6 7.4 7.3 70 2.6 ENE 24 35 13 19 1017.5 - 0.0
23/01:30am 12.4 8.0 7.5 72 2.4 ENE 20 30 11 16 1017.6 - 0.0
23/01:00am 12.4 7.9 7.0 69 2.6 ENE 20 30 11 16 1017.8 - 0.0
23/12:30am 12.4 7.8 6.3 66 2.9 ENE 20 32 11 17 1018.1 - 0.0
23/12:00am 12.3 7.2 6.2 66 2.9 ENE 22 30 12 16 1018.5 1018.7 0.0
 
Date/Time
CST
Temp
°C
App
Temp
°C
Dew
Point
Rel
Hum
%
Delta-T
°C
Wind Press
QNH
hPa
Press
MSL
hPa
Rain
since 9 am
mm
Dir
 
Spd
km/h
Gust
km/h
Spd
kts
Gust
kts
22/11:30pm 12.3 7.4 5.2 62 3.3 ENE 20 28 11 15 1018.9 - 0.0
22/11:00pm 12.3 7.3 4.4 58 3.6 ENE 20 28 11 15 1019.1 - 0.0
22/10:30pm 12.2 7.1 4.0 57 3.7 ENE 20 26 11 14 1019.2 - 0.0
22/10:00pm 11.8 6.7 4.3 60 3.4 ENE 20 28 11 15 1019.3 - 0.0
22/09:30pm 11.8 6.4 4.3 60 3.4 ENE 22 28 12 15 1019.6 - 0.0
22/09:00pm 11.7 6.4 5.0 63 3.1 ENE 22 28 12 15 1019.7 1019.9 0.0
22/08:30pm 11.9 6.5 4.4 60 3.4 ENE 22 30 12 16 1019.8 - 0.0
22/08:00pm 12.1 6.2 3.9 57 3.7 ENE 24 33 13 18 1019.6 - 0.0
22/07:30pm 12.0 6.7 5.1 62 3.2 ENE 22 30 12 16 1019.9 - 0.0
22/07:00pm 12.0 6.7 3.2 55 3.9 ENE 20 26 11 14 1020.1 - 0.0
22/06:30pm 12.1 7.0 3.1 54 4.0 ENE 19 24 10 13 1020.1 - 0.0
22/06:00pm 12.2 6.8 1.1 46 4.7 E 19 24 10 13 1019.8 1020.0 0.0
22/05:30pm 12.4 7.5 2.3 50 4.4 E 17 22 9 12 1019.8 - 0.0
22/05:00pm 13.3 8.3 3.6 52 4.4 ENE 19 26 10 14 1020.1 - 0.0
22/04:30pm 14.2 9.4 4.5 52 4.5 ENE 19 26 10 14 1019.8 - 0.0
22/04:00pm 14.2 9.7 6.8 61 3.6 ENE 20 28 11 15 1019.5 - 0.0
22/03:30pm 14.9 10.4 6.2 56 4.2 ENE 19 24 10 13 1019.9 - 0.0
22/03:00pm 14.9 10.6 7.0 59 3.9 ENE 19 26 10 14 1019.9 1020.1 0.0
22/02:30pm 14.3 9.3 6.5 59 3.8 ENE 22 28 12 15 1020.2 - 0.0
22/02:00pm 14.8 10.5 7.8 63 3.5 ENE 20 28 11 15 1020.5 - 0.0
22/01:30pm 14.8 10.9 8.5 66 3.2 ENE 19 28 10 15 1021.0 - 0.0
22/01:00pm 14.7 10.5 8.4 66 3.2 ENE 20 28 11 15 1021.5 - 0.0
22/12:30pm 14.7 10.6 8.6 67 3.1 NE 20 28 11 15 1021.9 - 0.0
22/12:00pm 14.2 10.2 9.1 71 2.6 ENE 20 30 11 16 1022.3 1022.5 0.0
22/11:30am 14.2 10.6 10.4 78 2.0 ENE 20 28 11 15 1022.6 - 0.0
22/11:00am 13.9 10.3 10.5 80 1.8 ENE 20 30 11 16 1022.9 - 0.0
22/10:30am 13.8 9.9 9.5 75 2.2 ENE 20 28 11 15 1023.1 - 0.0
22/10:00am 13.5 9.4 8.7 73 2.4 ENE 20 26 11 14 1023.0 - 0.0
22/09:30am 13.0 8.7 7.7 70 2.6 ENE 20 26 11 14 1023.1 - 0.0
22/09:00am 12.3 9.2 7.1 70 2.5 ENE 13 17 7 9 1022.9 1023.1 0.0
22/08:30am 10.1 7.0 7.2 82 1.4 E 13 15 7 8 1022.6 - 0.0
22/08:00am 9.5 5.7 7.4 87 1.0 E 17 19 9 10 1022.4 - 0.0
22/07:30am 9.9 6.1 7.6 85 1.1 ENE 17 20 9 11 1022.5 - 0.0
22/07:00am 10.0 6.1 7.3 83 1.3 ENE 17 20 9 11 1022.4 - 0.0
22/06:30am 9.8 5.9 7.1 83 1.3 ENE 17 20 9 11 1022.0 - 0.0
22/06:00am 9.7 5.8 6.9 83 1.3 ENE 17 20 9 11 1021.9 1022.1 0.0
22/05:30am 10.2 6.3 7.3 82 1.4 ENE 17 20 9 11 1021.8 - 0.0
22/05:00am 9.9 6.2 7.8 87 1.0 ENE 17 20 9 11 1021.8 - 0.0
22/04:30am 9.7 5.9 7.4 85 1.1 ENE 17 20 9 11 1021.8 - 0.0
22/04:00am 9.6 5.9 7.9 89 0.8 ENE 17 20 9 11 1021.7 - 0.0
22/03:30am 10.1 6.8 8.0 87 1.0 ENE 15 19 8 10 1021.7 - 0.0
22/03:00am 10.6 6.9 8.1 84 1.2 ENE 17 20 9 11 1021.7 1021.9 0.0
22/02:30am 11.0 6.9 6.3 73 2.2 NE 17 20 9 11 1021.7 - 0.0
22/02:00am 10.9 6.7 5.5 69 2.5 NE 17 24 9 13 1021.5 - 0.0
22/01:30am 11.1 7.0 6.0 71 2.4 NE 17 24 9 13 1021.6 - 0.0
22/01:00am 10.4 6.7 8.1 86 1.1 NE 17 20 9 11 1021.7 - 0.0
22/12:30am 10.6 7.2 9.2 91 0.7 ENE 17 22 9 12 1021.8 - 0.0
22/12:00am 10.0 6.8 8.6 91 0.7 ENE 15 19 8 10 1022.0 1022.2 0.0
 
Date/Time
CST
Temp
°C
App
Temp
°C
Dew
Point
Rel
Hum
%
Delta-T
°C
Wind Press
QNH
hPa
Press
MSL
hPa
Rain
since 9 am
mm
Dir
 
Spd
km/h
Gust
km/h
Spd
kts
Gust
kts
21/11:30pm 10.4 7.6 8.4 87 1.0 ENE 13 15 7 8 1022.0 - 0.0
21/11:00pm 10.8 7.8 7.9 82 1.4 NE 13 19 7 10 1022.0 - 0.0
21/10:30pm 11.0 8.2 8.4 84 1.3 NE 13 19 7 10 1021.9 - 0.0
21/10:00pm 11.2 8.5 9.0 86 1.1 NE 13 19 7 10 1021.9 - 0.0
21/09:30pm 11.5 8.8 9.1 85 1.2 NNE 13 17 7 9 1021.9 - 0.0
21/09:00pm 11.7 9.3 9.9 89 0.9 NE 13 20 7 11 1021.7 1021.9 0.0
21/08:30pm 11.9 8.6 9.7 86 1.1 ENE 17 22 9 12 1021.5 - 0.0
21/08:00pm 12.0 8.6 9.2 83 1.4 ENE 17 24 9 13 1021.3 - 0.0
21/07:30pm 11.7 8.6 8.7 82 1.5 ENE 15 20 8 11 1021.3 - 0.0
21/07:00pm 11.9 8.8 8.7 81 1.6 NE 15 20 8 11 1021.0 - 0.0
21/06:30pm 11.7 8.2 8.9 83 1.4 ENE 17 20 9 11 1020.6 - 0.0
21/06:00pm 11.6 8.5 8.8 83 1.4 NE 15 20 8 11 1020.3 1020.5 0.0
21/05:30pm 11.8 8.7 9.0 83 1.4 NE 15 20 8 11 1020.1 - 0.0
21/05:00pm 11.8 8.7 8.8 82 1.5 NE 15 19 8 10 1020.1 - 0.0
21/04:30pm 12.1 9.3 8.7 80 1.7 NE 13 17 7 9 1019.9 - 0.0
21/04:00pm 12.4 9.7 9.0 80 1.7 NE 13 17 7 9 1020.0 - 0.0
21/03:30pm 12.6 9.5 8.8 77 1.9 NE 15 20 8 11 1019.8 - 0.0
21/03:00pm 12.6 9.5 9.0 79 1.8 NE 15 19 8 10 1019.7 1019.9 0.0
21/02:30pm 12.9 9.5 9.2 78 1.9 NE 17 20 9 11 1019.6 - 0.0
21/02:00pm 13.7 10.3 9.0 73 2.4 ENE 17 22 9 12 1019.4 - 0.0
21/01:30pm 12.7 9.2 8.9 78 1.9 ENE 17 22 9 12 1019.7 - 0.0
21/01:00pm 13.2 9.8 9.1 76 2.1 NE 17 24 9 13 1020.0 - 0.0
21/12:30pm 12.0 8.6 9.2 83 1.4 NE 17 20 9 11 1020.5 - 0.0
21/12:00pm 11.9 8.2 9.3 84 1.3 NE 19 24 10 13 1021.0 1021.1 0.0
21/11:30am 12.0 8.3 9.4 84 1.3 NE 19 24 10 13 1021.4 - 0.0
21/11:00am 12.7 9.4 9.4 80 1.7 NE 17 22 9 12 1021.5 - 0.0
21/10:30am 11.7 8.2 8.7 82 1.5 NE 17 24 9 13 1021.6 - 0.0
21/10:00am 11.5 8.0 8.9 84 1.3 NE 17 22 9 12 1021.6 - 0.0
21/09:30am 11.6 7.7 8.8 83 1.4 NE 19 24 10 13 1021.6 - 0.0
21/09:00am 12.3 8.6 9.3 82 1.5 ENE 19 28 10 15 1021.4 1021.5 0.2
21/08:30am 10.9 7.8 8.7 86 1.1 ENE 15 22 8 12 1021.3 - 0.2
21/08:00am 10.6 7.5 8.8 89 0.9 ENE 15 20 8 11 1021.0 - 0.2
21/07:30am 10.5 6.8 7.8 83 1.3 NE 17 22 9 12 1020.9 - 0.2
21/07:00am 10.5 6.7 7.6 82 1.4 NE 17 24 9 13 1020.8 - 0.2
21/06:30am 10.7 6.6 7.8 82 1.4 NE 19 24 10 13 1020.5 - 0.2
21/06:00am 10.8 7.0 7.5 80 1.6 NNE 17 22 9 12 1020.3 1020.5 0.2

Other Formats:

Comma delimited format used in spreadsheet applications
http://www.bom.gov.au/fwo/IDS60801/IDS60801.95805.axf

JavaScript Object Notation format (JSON) in row-major order
http://www.bom.gov.au/fwo/IDS60801/IDS60801.95805.json